sensor_id;sensor_type;location;lat;lon;timestamp;P1;durP1;ratioP1;P2;durP2;ratioP2
21721;SDS011;11023;48.274;7.794;2024-03-23T00:55:46;2.63;;;1.02;;
21721;SDS011;11023;48.274;7.794;2024-03-23T00:58:12;1.52;;;1.13;;
21721;SDS011;11023;48.274;7.794;2024-03-23T01:00:38;1.15;;;1.05;;
21721;SDS011;11023;48.274;7.794;2024-03-23T01:03:03;1.33;;;1.05;;
21721;SDS011;11023;48.274;7.794;2024-03-23T01:05:29;2.58;;;1.00;;
21721;SDS011;11023;48.274;7.794;2024-03-23T01:07:56;2.60;;;1.20;;
21721;SDS011;11023;48.274;7.794;2024-03-23T01:10:21;1.17;;;0.93;;
21721;SDS011;11023;48.274;7.794;2024-03-23T01:12:47;2.30;;;1.10;;
21721;SDS011;11023;48.274;7.794;2024-03-23T01:15:13;2.63;;;1.02;;
21721;SDS011;11023;48.274;7.794;2024-03-23T01:17:38;1.73;;;0.98;;
21721;SDS011;11023;48.274;7.794;2024-03-23T01:20:04;2.20;;;1.23;;
21721;SDS011;11023;48.274;7.794;2024-03-23T01:22:31;4.40;;;1.00;;
21721;SDS011;11023;48.274;7.794;2024-03-23T01:24:58;2.70;;;1.10;;
21721;SDS011;11023;48.274;7.794;2024-03-23T01:27:23;2.65;;;1.48;;
21721;SDS011;11023;48.274;7.794;2024-03-23T01:29:49;3.13;;;1.20;;
21721;SDS011;11023;48.274;7.794;2024-03-23T01:32:17;1.30;;;0.90;;
21721;SDS011;11023;48.274;7.794;2024-03-23T01:34:43;1.73;;;1.10;;
21721;SDS011;11023;48.274;7.794;2024-03-23T01:37:09;2.45;;;1.20;;
21721;SDS011;11023;48.274;7.794;2024-03-23T01:39:35;2.80;;;1.45;;
21721;SDS011;11023;48.274;7.794;2024-03-23T01:42:00;4.30;;;1.30;;
21721;SDS011;11023;48.274;7.794;2024-03-23T01:44:26;4.78;;;1.20;;
21721;SDS011;11023;48.274;7.794;2024-03-23T01:46:52;3.50;;;1.27;;
21721;SDS011;11023;48.274;7.794;2024-03-23T01:49:17;3.60;;;1.25;;
21721;SDS011;11023;48.274;7.794;2024-03-23T01:51:43;3.22;;;1.17;;
21721;SDS011;11023;48.274;7.794;2024-03-23T01:54:10;3.08;;;1.02;;
21721;SDS011;11023;48.274;7.794;2024-03-23T01:56:35;2.25;;;1.13;;
21721;SDS011;11023;48.274;7.794;2024-03-23T01:59:04;2.15;;;1.40;;
21721;SDS011;11023;48.274;7.794;2024-03-23T02:01:31;1.75;;;1.10;;
21721;SDS011;11023;48.274;7.794;2024-03-23T02:03:57;1.50;;;1.08;;
21721;SDS011;11023;48.274;7.794;2024-03-23T02:06:23;2.40;;;1.42;;
21721;SDS011;11023;48.274;7.794;2024-03-23T02:08:49;2.00;;;1.40;;
21721;SDS011;11023;48.274;7.794;2024-03-23T02:11:15;2.17;;;1.30;;
21721;SDS011;11023;48.274;7.794;2024-03-23T02:13:41;2.80;;;1.48;;
21721;SDS011;11023;48.274;7.794;2024-03-23T02:16:07;4.22;;;1.30;;
21721;SDS011;11023;48.274;7.794;2024-03-23T02:18:33;3.22;;;1.65;;
21721;SDS011;11023;48.274;7.794;2024-03-23T02:20:59;3.85;;;1.73;;
21721;SDS011;11023;48.274;7.794;2024-03-23T02:23:26;4.75;;;1.92;;
21721;SDS011;11023;48.274;7.794;2024-03-23T02:25:52;2.63;;;1.75;;
21721;SDS011;11023;48.274;7.794;2024-03-23T02:28:20;1.45;;;1.35;;
21721;SDS011;11023;48.274;7.794;2024-03-23T02:30:47;2.78;;;1.60;;
21721;SDS011;11023;48.274;7.794;2024-03-23T02:33:16;3.70;;;1.45;;
21721;SDS011;11023;48.274;7.794;2024-03-23T02:35:45;2.33;;;1.50;;
21721;SDS011;11023;48.274;7.794;2024-03-23T02:38:12;2.53;;;1.40;;
21721;SDS011;11023;48.274;7.794;2024-03-23T02:40:37;1.80;;;1.30;;
21721;SDS011;11023;48.274;7.794;2024-03-23T02:43:03;3.67;;;1.25;;
21721;SDS011;11023;48.274;7.794;2024-03-23T02:45:29;5.00;;;1.65;;
21721;SDS011;11023;48.274;7.794;2024-03-23T02:47:55;2.42;;;1.27;;
21721;SDS011;11023;48.274;7.794;2024-03-23T02:50:22;2.85;;;1.25;;
21721;SDS011;11023;48.274;7.794;2024-03-23T02:52:48;4.22;;;1.58;;
21721;SDS011;11023;48.274;7.794;2024-03-23T02:55:14;3.70;;;1.40;;
21721;SDS011;11023;48.274;7.794;2024-03-23T02:57:41;3.85;;;1.83;;
21721;SDS011;11023;48.274;7.794;2024-03-23T03:00:07;2.33;;;1.40;;
21721;SDS011;11023;48.274;7.794;2024-03-23T03:02:34;3.38;;;1.50;;
21721;SDS011;11023;48.274;7.794;2024-03-23T03:05:01;2.78;;;1.42;;
21721;SDS011;11023;48.274;7.794;2024-03-23T03:07:27;3.17;;;1.27;;
21721;SDS011;11023;48.274;7.794;2024-03-23T03:09:52;3.95;;;1.40;;
21721;SDS011;11023;48.274;7.794;2024-03-23T03:12:18;2.25;;;1.35;;
21721;SDS011;11023;48.274;7.794;2024-03-23T03:14:44;2.20;;;1.30;;
21721;SDS011;11023;48.274;7.794;2024-03-23T03:17:09;2.35;;;1.35;;
21721;SDS011;11023;48.274;7.794;2024-03-23T03:19:35;1.77;;;1.10;;
21721;SDS011;11023;48.274;7.794;2024-03-23T03:22:00;2.20;;;1.40;;
21721;SDS011;11023;48.274;7.794;2024-03-23T03:24:26;2.10;;;1.38;;
21721;SDS011;11023;48.274;7.794;2024-03-23T03:26:52;3.30;;;1.33;;
21721;SDS011;11023;48.274;7.794;2024-03-23T03:29:17;2.60;;;1.30;;
21721;SDS011;11023;48.274;7.794;2024-03-23T03:31:43;2.17;;;1.35;;
21721;SDS011;11023;48.274;7.794;2024-03-23T03:34:09;4.80;;;1.98;;
21721;SDS011;11023;48.274;7.794;2024-03-23T03:36:35;2.65;;;1.70;;
21721;SDS011;11023;48.274;7.794;2024-03-23T03:39:01;4.45;;;1.67;;
21721;SDS011;11023;48.274;7.794;2024-03-23T03:41:28;1.85;;;1.38;;
21721;SDS011;11023;48.274;7.794;2024-03-23T03:43:54;3.88;;;1.65;;
21721;SDS011;11023;48.274;7.794;2024-03-23T03:46:20;2.53;;;1.50;;
21721;SDS011;11023;48.274;7.794;2024-03-23T03:48:46;2.13;;;1.35;;
21721;SDS011;11023;48.274;7.794;2024-03-23T03:51:13;2.67;;;1.60;;
21721;SDS011;11023;48.274;7.794;2024-03-23T03:53:39;1.80;;;1.48;;
21721;SDS011;11023;48.274;7.794;2024-03-23T03:56:05;1.52;;;1.25;;
21721;SDS011;11023;48.274;7.794;2024-03-23T03:58:31;1.88;;;1.55;;
21721;SDS011;11023;48.274;7.794;2024-03-23T04:00:57;1.98;;;1.50;;
21721;SDS011;11023;48.274;7.794;2024-03-23T04:03:23;2.58;;;1.67;;
21721;SDS011;11023;48.274;7.794;2024-03-23T04:05:52;5.60;;;2.13;;
21721;SDS011;11023;48.274;7.794;2024-03-23T04:08:19;2.88;;;1.70;;
21721;SDS011;11023;48.274;7.794;2024-03-23T04:10:45;4.65;;;1.77;;
21721;SDS011;11023;48.274;7.794;2024-03-23T04:13:11;2.25;;;1.60;;
21721;SDS011;11023;48.274;7.794;2024-03-23T04:15:38;3.85;;;1.77;;
21721;SDS011;11023;48.274;7.794;2024-03-23T04:18:03;4.43;;;1.70;;
21721;SDS011;11023;48.274;7.794;2024-03-23T04:20:29;6.25;;;1.73;;
21721;SDS011;11023;48.274;7.794;2024-03-23T04:22:55;3.08;;;1.90;;
21721;SDS011;11023;48.274;7.794;2024-03-23T04:25:20;7.32;;;1.92;;
21721;SDS011;11023;48.274;7.794;2024-03-23T04:27:46;3.88;;;2.63;;
21721;SDS011;11023;48.274;7.794;2024-03-23T04:30:12;4.28;;;2.95;;
21721;SDS011;11023;48.274;7.794;2024-03-23T04:32:38;6.03;;;3.95;;
21721;SDS011;11023;48.274;7.794;2024-03-23T04:35:05;7.57;;;4.13;;
21721;SDS011;11023;48.274;7.794;2024-03-23T04:37:31;11.02;;;4.43;;
21721;SDS011;11023;48.274;7.794;2024-03-23T04:39:59;10.27;;;5.25;;
21721;SDS011;11023;48.274;7.794;2024-03-23T04:42:25;9.43;;;5.18;;
21721;SDS011;11023;48.274;7.794;2024-03-23T04:44:51;8.57;;;5.80;;
21721;SDS011;11023;48.274;7.794;2024-03-23T04:47:17;10.98;;;5.65;;
21721;SDS011;11023;48.274;7.794;2024-03-23T04:49:43;15.15;;;5.85;;
21721;SDS011;11023;48.274;7.794;2024-03-23T04:52:08;11.48;;;6.07;;
21721;SDS011;11023;48.274;7.794;2024-03-23T04:54:34;12.77;;;5.95;;
21721;SDS011;11023;48.274;7.794;2024-03-23T04:57:00;13.05;;;6.13;;
21721;SDS011;11023;48.274;7.794;2024-03-23T04:59:25;12.90;;;6.30;;
21721;SDS011;11023;48.274;7.794;2024-03-23T05:01:51;11.65;;;6.20;;
21721;SDS011;11023;48.274;7.794;2024-03-23T05:04:17;9.48;;;5.25;;
21721;SDS011;11023;48.274;7.794;2024-03-23T05:06:42;12.98;;;5.43;;
21721;SDS011;11023;48.274;7.794;2024-03-23T05:09:08;12.68;;;6.82;;
21721;SDS011;11023;48.274;7.794;2024-03-23T05:11:37;11.07;;;5.80;;
21721;SDS011;11023;48.274;7.794;2024-03-23T05:14:03;12.48;;;5.72;;
21721;SDS011;11023;48.274;7.794;2024-03-23T05:16:29;10.40;;;5.40;;
21721;SDS011;11023;48.274;7.794;2024-03-23T05:18:55;13.63;;;5.10;;
21721;SDS011;11023;48.274;7.794;2024-03-23T05:21:20;9.10;;;5.32;;
21721;SDS011;11023;48.274;7.794;2024-03-23T05:23:46;10.52;;;5.15;;
21721;SDS011;11023;48.274;7.794;2024-03-23T05:26:12;12.52;;;5.90;;
21721;SDS011;11023;48.274;7.794;2024-03-23T05:28:38;14.23;;;6.30;;
21721;SDS011;11023;48.274;7.794;2024-03-23T05:31:04;10.57;;;6.20;;
21721;SDS011;11023;48.274;7.794;2024-03-23T05:33:30;12.38;;;6.10;;
21721;SDS011;11023;48.274;7.794;2024-03-23T05:35:56;10.52;;;5.47;;
21721;SDS011;11023;48.274;7.794;2024-03-23T05:38:22;8.95;;;4.68;;
21721;SDS011;11023;48.274;7.794;2024-03-23T05:40:58;8.60;;;4.50;;
21721;SDS011;11023;48.274;7.794;2024-03-23T05:43:24;6.25;;;3.58;;
21721;SDS011;11023;48.274;7.794;2024-03-23T05:48:23;3.85;;;1.88;;
21721;SDS011;11023;48.274;7.794;2024-03-23T05:50:50;2.40;;;1.00;;
21721;SDS011;11023;48.274;7.794;2024-03-23T05:53:16;1.50;;;0.70;;
21721;SDS011;11023;48.274;7.794;2024-03-23T05:55:42;1.85;;;0.63;;
21721;SDS011;11023;48.274;7.794;2024-03-23T05:58:08;0.40;;;0.20;;
21721;SDS011;11023;48.274;7.794;2024-03-23T06:00:35;0.57;;;0.20;;
21721;SDS011;11023;48.274;7.794;2024-03-23T06:03:00;0.20;;;0.20;;
21721;SDS011;11023;48.274;7.794;2024-03-23T06:05:26;0.10;;;0.10;;
21721;SDS011;11023;48.274;7.794;2024-03-23T06:07:52;0.47;;;0.20;;
21721;SDS011;11023;48.274;7.794;2024-03-23T06:10:18;1.90;;;0.50;;
21721;SDS011;11023;48.274;7.794;2024-03-23T06:12:45;0.35;;;0.30;;
21721;SDS011;11023;48.274;7.794;2024-03-23T06:15:11;0.60;;;0.40;;
21721;SDS011;11023;48.274;7.794;2024-03-23T06:17:37;0.10;;;0.10;;
21721;SDS011;11023;48.274;7.794;2024-03-23T06:20:03;0.57;;;0.20;;
21721;SDS011;11023;48.274;7.794;2024-03-23T06:22:31;1.08;;;0.10;;
21721;SDS011;11023;48.274;7.794;2024-03-23T06:24:57;0.10;;;0.10;;
21721;SDS011;11023;48.274;7.794;2024-03-23T06:27:23;0.20;;;0.10;;
21721;SDS011;11023;48.274;7.794;2024-03-23T06:29:48;0.30;;;0.10;;
21721;SDS011;11023;48.274;7.794;2024-03-23T06:32:14;0.00;;;0.00;;
21721;SDS011;11023;48.274;7.794;2024-03-23T06:34:42;0.25;;;0.10;;
21721;SDS011;11023;48.274;7.794;2024-03-23T06:37:08;0.30;;;0.20;;
21721;SDS011;11023;48.274;7.794;2024-03-23T06:39:37;0.10;;;0.00;;
21721;SDS011;11023;48.274;7.794;2024-03-23T06:42:03;0.20;;;0.20;;
21721;SDS011;11023;48.274;7.794;2024-03-23T06:44:29;0.08;;;0.08;;
21721;SDS011;11023;48.274;7.794;2024-03-23T06:46:55;0.10;;;0.08;;
21721;SDS011;11023;48.274;7.794;2024-03-23T06:49:22;0.10;;;0.10;;
21721;SDS011;11023;48.274;7.794;2024-03-23T06:51:48;0.40;;;0.20;;
21721;SDS011;11023;48.274;7.794;2024-03-23T06:54:14;0.08;;;0.00;;
21721;SDS011;11023;48.274;7.794;2024-03-23T06:56:39;0.00;;;0.00;;
21721;SDS011;11023;48.274;7.794;2024-03-23T06:59:05;0.30;;;0.03;;
21721;SDS011;11023;48.274;7.794;2024-03-23T07:01:31;0.00;;;0.00;;
21721;SDS011;11023;48.274;7.794;2024-03-23T07:03:57;0.08;;;0.08;;
21721;SDS011;11023;48.274;7.794;2024-03-23T07:06:23;0.10;;;0.10;;
21721;SDS011;11023;48.274;7.794;2024-03-23T07:08:48;0.00;;;0.00;;
21721;SDS011;11023;48.274;7.794;2024-03-23T07:11:21;0.05;;;0.00;;
21721;SDS011;11023;48.274;7.794;2024-03-23T07:13:49;0.00;;;0.00;;
21721;SDS011;11023;48.274;7.794;2024-03-23T07:16:15;0.00;;;0.00;;
21721;SDS011;11023;48.274;7.794;2024-03-23T07:18:41;3.50;;;0.50;;
21721;SDS011;11023;48.274;7.794;2024-03-23T07:21:07;0.13;;;0.00;;
21721;SDS011;11023;48.274;7.794;2024-03-23T07:23:33;0.32;;;0.10;;
21721;SDS011;11023;48.274;7.794;2024-03-23T07:25:59;0.82;;;0.10;;
21721;SDS011;11023;48.274;7.794;2024-03-23T07:28:26;0.10;;;0.10;;
21721;SDS011;11023;48.274;7.794;2024-03-23T07:31:09;2.38;;;0.40;;
21721;SDS011;11023;48.274;7.794;2024-03-23T07:33:43;0.10;;;0.10;;
21721;SDS011;11023;48.274;7.794;2024-03-23T07:36:10;0.10;;;0.10;;
21721;SDS011;11023;48.274;7.794;2024-03-23T07:38:36;1.75;;;0.10;;
21721;SDS011;11023;48.274;7.794;2024-03-23T07:41:02;0.90;;;0.13;;
21721;SDS011;11023;48.274;7.794;2024-03-23T07:43:31;0.15;;;0.10;;
21721;SDS011;11023;48.274;7.794;2024-03-23T07:45:57;0.55;;;0.20;;
21721;SDS011;11023;48.274;7.794;2024-03-23T07:48:23;0.10;;;0.10;;
21721;SDS011;11023;48.274;7.794;2024-03-23T07:53:43;0.38;;;0.10;;
21721;SDS011;11023;48.274;7.794;2024-03-23T07:56:10;1.75;;;0.28;;
21721;SDS011;11023;48.274;7.794;2024-03-23T07:58:36;1.92;;;0.50;;
21721;SDS011;11023;48.274;7.794;2024-03-23T08:01:05;1.52;;;0.40;;
21721;SDS011;11023;48.274;7.794;2024-03-23T08:03:38;1.25;;;0.43;;
21721;SDS011;11023;48.274;7.794;2024-03-23T08:08:50;5.40;;;1.10;;
21721;SDS011;11023;48.274;7.794;2024-03-23T08:11:24;1.83;;;0.60;;
21721;SDS011;11023;48.274;7.794;2024-03-23T08:13:51;1.70;;;0.90;;
21721;SDS011;11023;48.274;7.794;2024-03-23T08:16:16;3.95;;;0.98;;
21721;SDS011;11023;48.274;7.794;2024-03-23T08:18:42;4.15;;;1.15;;
21721;SDS011;11023;48.274;7.794;2024-03-23T08:21:08;3.83;;;1.88;;
21721;SDS011;11023;48.274;7.794;2024-03-23T08:23:34;5.35;;;1.25;;
21721;SDS011;11023;48.274;7.794;2024-03-23T08:26:03;5.45;;;1.52;;
21721;SDS011;11023;48.274;7.794;2024-03-23T08:31:09;3.50;;;1.52;;
21721;SDS011;11023;48.274;7.794;2024-03-23T08:36:04;5.78;;;1.40;;
21721;SDS011;11023;48.274;7.794;2024-03-23T08:38:31;8.65;;;1.65;;
21721;SDS011;11023;48.274;7.794;2024-03-23T08:41:04;6.32;;;1.58;;
21721;SDS011;11023;48.274;7.794;2024-03-23T08:43:35;3.20;;;1.38;;
21721;SDS011;11023;48.274;7.794;2024-03-23T08:48:34;5.40;;;1.50;;
21721;SDS011;11023;48.274;7.794;2024-03-23T08:51:01;6.40;;;1.83;;
21721;SDS011;11023;48.274;7.794;2024-03-23T08:53:28;5.65;;;1.70;;
21721;SDS011;11023;48.274;7.794;2024-03-23T08:56:01;4.22;;;1.45;;
21721;SDS011;11023;48.274;7.794;2024-03-23T08:58:31;5.60;;;1.90;;
21721;SDS011;11023;48.274;7.794;2024-03-23T09:01:07;5.13;;;1.63;;
21721;SDS011;11023;48.274;7.794;2024-03-23T09:03:34;6.32;;;2.15;;
21721;SDS011;11023;48.274;7.794;2024-03-23T09:06:00;4.63;;;1.55;;
21721;SDS011;11023;48.274;7.794;2024-03-23T09:08:33;6.07;;;2.30;;
21721;SDS011;11023;48.274;7.794;2024-03-23T09:11:03;7.40;;;2.10;;
21721;SDS011;11023;48.274;7.794;2024-03-23T09:13:33;9.35;;;1.77;;
21721;SDS011;11023;48.274;7.794;2024-03-23T09:16:02;5.05;;;1.63;;
21721;SDS011;11023;48.274;7.794;2024-03-23T09:18:30;4.95;;;1.77;;
21721;SDS011;11023;48.274;7.794;2024-03-23T09:20:58;4.60;;;1.58;;
21721;SDS011;11023;48.274;7.794;2024-03-23T09:23:24;10.63;;;1.80;;
21721;SDS011;11023;48.274;7.794;2024-03-23T09:25:50;4.60;;;1.80;;
21721;SDS011;11023;48.274;7.794;2024-03-23T09:28:16;4.45;;;1.17;;
21721;SDS011;11023;48.274;7.794;2024-03-23T09:30:42;5.68;;;1.65;;
21721;SDS011;11023;48.274;7.794;2024-03-23T09:33:08;7.00;;;1.50;;
21721;SDS011;11023;48.274;7.794;2024-03-23T09:35:40;2.60;;;1.23;;
21721;SDS011;11023;48.274;7.794;2024-03-23T09:38:07;6.47;;;1.65;;
21721;SDS011;11023;48.274;7.794;2024-03-23T09:40:34;5.78;;;1.55;;
21721;SDS011;11023;48.274;7.794;2024-03-23T09:43:06;6.68;;;1.40;;
21721;SDS011;11023;48.274;7.794;2024-03-23T09:45:36;5.90;;;1.90;;
21721;SDS011;11023;48.274;7.794;2024-03-23T09:48:04;7.30;;;1.38;;
21721;SDS011;11023;48.274;7.794;2024-03-23T09:50:37;5.85;;;1.30;;
21721;SDS011;11023;48.274;7.794;2024-03-23T09:53:04;5.00;;;1.10;;
21721;SDS011;11023;48.274;7.794;2024-03-23T09:55:33;6.82;;;1.40;;
21721;SDS011;11023;48.274;7.794;2024-03-23T09:58:01;3.00;;;1.25;;
21721;SDS011;11023;48.274;7.794;2024-03-23T10:00:30;5.05;;;1.35;;
21721;SDS011;11023;48.274;7.794;2024-03-23T10:02:59;6.95;;;1.63;;
21721;SDS011;11023;48.274;7.794;2024-03-23T10:05:27;5.93;;;1.50;;
21721;SDS011;11023;48.274;7.794;2024-03-23T10:07:57;4.95;;;1.40;;
21721;SDS011;11023;48.274;7.794;2024-03-23T10:10:27;7.35;;;1.40;;
21721;SDS011;11023;48.274;7.794;2024-03-23T10:12:53;2.83;;;1.00;;
21721;SDS011;11023;48.274;7.794;2024-03-23T10:15:20;8.73;;;2.00;;
21721;SDS011;11023;48.274;7.794;2024-03-23T10:17:49;5.55;;;1.13;;
21721;SDS011;11023;48.274;7.794;2024-03-23T10:20:19;1.95;;;0.73;;
21721;SDS011;11023;48.274;7.794;2024-03-23T10:22:49;2.35;;;0.70;;
21721;SDS011;11023;48.274;7.794;2024-03-23T10:25:22;3.72;;;0.70;;
21721;SDS011;11023;48.274;7.794;2024-03-23T10:27:58;1.65;;;0.70;;
21721;SDS011;11023;48.274;7.794;2024-03-23T10:30:25;4.63;;;0.88;;
21721;SDS011;11023;48.274;7.794;2024-03-23T10:33:13;5.55;;;0.90;;
21721;SDS011;11023;48.274;7.794;2024-03-23T10:35:39;6.88;;;1.55;;
21721;SDS011;11023;48.274;7.794;2024-03-23T10:38:05;2.10;;;1.15;;
21721;SDS011;11023;48.274;7.794;2024-03-23T10:40:36;3.65;;;1.20;;
21721;SDS011;11023;48.274;7.794;2024-03-23T10:43:05;3.90;;;1.10;;
21721;SDS011;11023;48.274;7.794;2024-03-23T10:45:33;5.85;;;1.20;;
21721;SDS011;11023;48.274;7.794;2024-03-23T10:47:59;2.17;;;0.95;;
21721;SDS011;11023;48.274;7.794;2024-03-23T10:50:24;4.13;;;0.60;;
21721;SDS011;11023;48.274;7.794;2024-03-23T10:52:51;2.33;;;0.85;;
21721;SDS011;11023;48.274;7.794;2024-03-23T10:55:20;2.50;;;1.00;;
21721;SDS011;11023;48.274;7.794;2024-03-23T10:57:53;1.20;;;0.43;;
21721;SDS011;11023;48.274;7.794;2024-03-23T11:00:20;1.00;;;0.70;;
21721;SDS011;11023;48.274;7.794;2024-03-23T11:02:48;2.33;;;0.50;;
21721;SDS011;11023;48.274;7.794;2024-03-23T11:07:52;0.55;;;0.50;;
21721;SDS011;11023;48.274;7.794;2024-03-23T11:10:28;4.63;;;0.60;;
21721;SDS011;11023;48.274;7.794;2024-03-23T11:12:58;2.08;;;0.80;;
21721;SDS011;11023;48.274;7.794;2024-03-23T11:15:43;3.10;;;0.50;;
21721;SDS011;11023;48.274;7.794;2024-03-23T11:18:08;7.53;;;0.50;;
21721;SDS011;11023;48.274;7.794;2024-03-23T11:20:37;4.18;;;0.80;;
21721;SDS011;11023;48.274;7.794;2024-03-23T11:23:03;1.23;;;0.50;;
21721;SDS011;11023;48.274;7.794;2024-03-23T11:25:32;4.85;;;0.95;;
21721;SDS011;11023;48.274;7.794;2024-03-23T11:28:09;1.55;;;0.90;;
21721;SDS011;11023;48.274;7.794;2024-03-23T11:30:36;2.70;;;0.70;;
21721;SDS011;11023;48.274;7.794;2024-03-23T11:33:05;5.15;;;1.10;;
21721;SDS011;11023;48.274;7.794;2024-03-23T11:35:35;3.80;;;0.80;;
21721;SDS011;11023;48.274;7.794;2024-03-23T11:38:13;3.70;;;0.75;;
21721;SDS011;11023;48.274;7.794;2024-03-23T11:40:47;6.32;;;0.93;;
21721;SDS011;11023;48.274;7.794;2024-03-23T11:43:14;3.07;;;0.60;;
21721;SDS011;11023;48.274;7.794;2024-03-23T11:45:45;3.40;;;1.00;;
21721;SDS011;11023;48.274;7.794;2024-03-23T11:48:16;1.35;;;0.65;;
21721;SDS011;11023;48.274;7.794;2024-03-23T11:50:44;2.67;;;0.80;;
21721;SDS011;11023;48.274;7.794;2024-03-23T11:53:17;2.25;;;0.75;;
21721;SDS011;11023;48.274;7.794;2024-03-23T11:55:57;1.63;;;0.80;;
21721;SDS011;11023;48.274;7.794;2024-03-23T11:58:24;1.30;;;0.70;;
21721;SDS011;11023;48.274;7.794;2024-03-23T12:00:52;2.83;;;0.70;;
21721;SDS011;11023;48.274;7.794;2024-03-23T12:03:27;5.70;;;0.98;;
21721;SDS011;11023;48.274;7.794;2024-03-23T12:05:54;3.47;;;0.98;;
21721;SDS011;11023;48.274;7.794;2024-03-23T12:11:06;2.78;;;0.98;;
21721;SDS011;11023;48.274;7.794;2024-03-23T12:13:36;3.90;;;0.70;;
21721;SDS011;11023;48.274;7.794;2024-03-23T12:18:38;5.88;;;0.60;;
21721;SDS011;11023;48.274;7.794;2024-03-23T12:21:05;1.60;;;0.40;;
21721;SDS011;11023;48.274;7.794;2024-03-23T12:23:31;2.97;;;0.52;;
21721;SDS011;11023;48.274;7.794;2024-03-23T12:25:57;2.22;;;0.60;;
21721;SDS011;11023;48.274;7.794;2024-03-23T12:28:23;1.95;;;0.65;;
21721;SDS011;11023;48.274;7.794;2024-03-23T12:30:49;1.30;;;0.22;;
21721;SDS011;11023;48.274;7.794;2024-03-23T12:33:14;0.20;;;0.10;;
21721;SDS011;11023;48.274;7.794;2024-03-23T12:35:40;1.67;;;0.30;;
21721;SDS011;11023;48.274;7.794;2024-03-23T12:38:06;1.30;;;0.63;;
21721;SDS011;11023;48.274;7.794;2024-03-23T12:40:32;2.45;;;0.38;;
21721;SDS011;11023;48.274;7.794;2024-03-23T12:42:57;3.17;;;0.55;;
21721;SDS011;11023;48.274;7.794;2024-03-23T12:45:23;3.45;;;0.50;;
21721;SDS011;11023;48.274;7.794;2024-03-23T12:47:49;3.72;;;0.57;;
21721;SDS011;11023;48.274;7.794;2024-03-23T12:50:17;0.88;;;0.60;;
21721;SDS011;11023;48.274;7.794;2024-03-23T12:52:43;1.23;;;0.40;;
21721;SDS011;11023;48.274;7.794;2024-03-23T12:55:08;6.28;;;1.25;;
21721;SDS011;11023;48.274;7.794;2024-03-23T12:57:34;2.95;;;0.40;;
21721;SDS011;11023;48.274;7.794;2024-03-23T13:00:00;3.15;;;0.65;;
21721;SDS011;11023;48.274;7.794;2024-03-23T13:02:26;1.38;;;0.20;;
21721;SDS011;11023;48.274;7.794;2024-03-23T13:04:53;2.63;;;0.40;;
21721;SDS011;11023;48.274;7.794;2024-03-23T13:07:19;6.25;;;0.70;;
21721;SDS011;11023;48.274;7.794;2024-03-23T13:09:49;1.65;;;0.43;;
21721;SDS011;11023;48.274;7.794;2024-03-23T13:12:16;1.58;;;0.65;;
21721;SDS011;11023;48.274;7.794;2024-03-23T13:14:46;2.70;;;0.68;;
21721;SDS011;11023;48.274;7.794;2024-03-23T13:17:11;2.38;;;0.47;;
21721;SDS011;11023;48.274;7.794;2024-03-23T13:19:37;2.97;;;0.60;;
21721;SDS011;11023;48.274;7.794;2024-03-23T13:22:03;1.88;;;0.47;;
21721;SDS011;11023;48.274;7.794;2024-03-23T13:24:30;1.83;;;0.95;;
21721;SDS011;11023;48.274;7.794;2024-03-23T13:26:56;1.45;;;0.47;;
21721;SDS011;11023;48.274;7.794;2024-03-23T13:29:22;2.00;;;0.73;;
21721;SDS011;11023;48.274;7.794;2024-03-23T13:31:49;2.55;;;0.57;;
21721;SDS011;11023;48.274;7.794;2024-03-23T13:34:15;2.88;;;0.55;;
21721;SDS011;11023;48.274;7.794;2024-03-23T13:36:42;3.08;;;0.60;;
21721;SDS011;11023;48.274;7.794;2024-03-23T13:39:08;4.22;;;0.50;;
21721;SDS011;11023;48.274;7.794;2024-03-23T13:41:41;1.25;;;0.50;;
21721;SDS011;11023;48.274;7.794;2024-03-23T13:44:08;1.75;;;0.52;;
21721;SDS011;11023;48.274;7.794;2024-03-23T13:46:37;1.45;;;0.60;;
21721;SDS011;11023;48.274;7.794;2024-03-23T13:51:56;2.70;;;0.43;;
21721;SDS011;11023;48.274;7.794;2024-03-23T13:54:25;4.28;;;0.50;;
21721;SDS011;11023;48.274;7.794;2024-03-23T13:56:51;1.40;;;0.50;;
21721;SDS011;11023;48.274;7.794;2024-03-23T13:59:18;1.30;;;0.43;;
21721;SDS011;11023;48.274;7.794;2024-03-23T14:01:44;1.88;;;0.47;;
21721;SDS011;11023;48.274;7.794;2024-03-23T14:04:10;2.45;;;0.60;;
21721;SDS011;11023;48.274;7.794;2024-03-23T14:06:36;1.92;;;0.63;;
21721;SDS011;11023;48.274;7.794;2024-03-23T14:09:02;0.98;;;0.60;;
21721;SDS011;11023;48.274;7.794;2024-03-23T14:11:29;4.45;;;0.70;;
21721;SDS011;11023;48.274;7.794;2024-03-23T14:13:55;3.30;;;0.20;;
21721;SDS011;11023;48.274;7.794;2024-03-23T14:16:20;1.30;;;0.30;;
21721;SDS011;11023;48.274;7.794;2024-03-23T14:18:46;1.20;;;0.40;;
21721;SDS011;11023;48.274;7.794;2024-03-23T14:21:12;3.08;;;0.30;;
21721;SDS011;11023;48.274;7.794;2024-03-23T14:23:38;2.00;;;0.10;;
21721;SDS011;11023;48.274;7.794;2024-03-23T14:26:06;1.85;;;0.30;;
21721;SDS011;11023;48.274;7.794;2024-03-23T14:28:31;0.30;;;0.20;;
21721;SDS011;11023;48.274;7.794;2024-03-23T14:30:57;1.48;;;0.30;;
21721;SDS011;11023;48.274;7.794;2024-03-23T14:33:24;0.88;;;0.25;;
21721;SDS011;11023;48.274;7.794;2024-03-23T14:35:53;1.33;;;0.30;;
21721;SDS011;11023;48.274;7.794;2024-03-23T14:38:20;1.38;;;0.35;;
21721;SDS011;11023;48.274;7.794;2024-03-23T14:40:46;0.63;;;0.32;;
21721;SDS011;11023;48.274;7.794;2024-03-23T14:43:12;0.30;;;0.30;;
21721;SDS011;11023;48.274;7.794;2024-03-23T14:45:45;1.88;;;0.43;;
21721;SDS011;11023;48.274;7.794;2024-03-23T14:48:32;1.25;;;0.40;;
21721;SDS011;11023;48.274;7.794;2024-03-23T14:50:59;3.65;;;0.30;;
21721;SDS011;11023;48.274;7.794;2024-03-23T14:53:29;3.80;;;0.40;;
21721;SDS011;11023;48.274;7.794;2024-03-23T14:55:55;3.30;;;0.40;;
21721;SDS011;11023;48.274;7.794;2024-03-23T14:58:21;1.58;;;0.30;;
21721;SDS011;11023;48.274;7.794;2024-03-23T15:00:48;4.47;;;0.35;;
21721;SDS011;11023;48.274;7.794;2024-03-23T15:03:14;3.63;;;0.38;;
21721;SDS011;11023;48.274;7.794;2024-03-23T15:05:39;2.30;;;0.50;;
21721;SDS011;11023;48.274;7.794;2024-03-23T15:08:05;0.68;;;0.30;;
21721;SDS011;11023;48.274;7.794;2024-03-23T15:10:32;1.80;;;0.10;;
21721;SDS011;11023;48.274;7.794;2024-03-23T15:12:58;0.35;;;0.00;;
21721;SDS011;11023;48.274;7.794;2024-03-23T15:15:24;0.10;;;0.10;;
21721;SDS011;11023;48.274;7.794;2024-03-23T15:17:49;2.17;;;0.10;;
21721;SDS011;11023;48.274;7.794;2024-03-23T15:20:15;3.20;;;0.13;;
21721;SDS011;11023;48.274;7.794;2024-03-23T15:22:41;0.40;;;0.13;;
21721;SDS011;11023;48.274;7.794;2024-03-23T15:25:07;0.47;;;0.20;;
21721;SDS011;11023;48.274;7.794;2024-03-23T15:27:33;0.52;;;0.20;;
21721;SDS011;11023;48.274;7.794;2024-03-23T15:29:59;0.20;;;0.20;;
21721;SDS011;11023;48.274;7.794;2024-03-23T15:32:24;0.80;;;0.28;;
21721;SDS011;11023;48.274;7.794;2024-03-23T15:34:50;0.50;;;0.17;;
21721;SDS011;11023;48.274;7.794;2024-03-23T15:37:17;0.43;;;0.20;;
21721;SDS011;11023;48.274;7.794;2024-03-23T15:39:43;1.05;;;0.50;;
21721;SDS011;11023;48.274;7.794;2024-03-23T15:42:08;0.40;;;0.30;;
21721;SDS011;11023;48.274;7.794;2024-03-23T15:44:35;0.60;;;0.25;;
21721;SDS011;11023;48.274;7.794;2024-03-23T15:47:01;0.98;;;0.30;;
21721;SDS011;11023;48.274;7.794;2024-03-23T15:49:26;0.40;;;0.20;;
21721;SDS011;11023;48.274;7.794;2024-03-23T15:51:52;0.20;;;0.13;;
21721;SDS011;11023;48.274;7.794;2024-03-23T15:54:18;1.17;;;0.40;;
21721;SDS011;11023;48.274;7.794;2024-03-23T15:56:44;0.57;;;0.10;;
21721;SDS011;11023;48.274;7.794;2024-03-23T15:59:10;0.98;;;0.17;;
21721;SDS011;11023;48.274;7.794;2024-03-23T16:01:35;1.65;;;0.30;;
21721;SDS011;11023;48.274;7.794;2024-03-23T16:04:03;1.95;;;0.38;;
21721;SDS011;11023;48.274;7.794;2024-03-23T16:06:29;0.30;;;0.20;;
21721;SDS011;11023;48.274;7.794;2024-03-23T16:08:54;0.25;;;0.17;;